createdAt,value
2023-04-07T00:01:05.892Z,83.27
2023-04-07T00:04:10.264Z,83.01
2023-04-07T00:07:14.349Z,83.08
2023-04-07T00:10:18.396Z,83.01
2023-04-07T00:13:22.312Z,82.94
2023-04-07T00:16:26.361Z,82.81
2023-04-07T00:19:30.434Z,82.81
2023-04-07T00:22:34.340Z,82.71
2023-04-07T00:25:38.348Z,82.63
2023-04-07T00:28:42.391Z,82.86
2023-04-07T00:31:46.357Z,82.61
2023-04-07T00:34:50.474Z,82.74
2023-04-07T00:37:54.445Z,82.63
2023-04-07T00:40:59.569Z,82.57
2023-04-07T00:44:03.994Z,82.69
2023-04-07T00:47:08.324Z,82.59
2023-04-07T00:50:12.441Z,82.69
2023-04-07T00:53:16.979Z,82.79
2023-04-07T00:56:21.447Z,82.80
2023-04-07T00:59:25.846Z,82.90
2023-04-07T01:02:48.307Z,82.93
2023-04-07T01:05:59.704Z,82.71
2023-04-07T01:09:25.791Z,82.75
2023-04-07T01:12:47.760Z,82.77
2023-04-07T01:15:56.524Z,82.75
2023-04-07T01:19:15.826Z,82.86
2023-04-07T01:22:33.816Z,82.69
2023-04-07T01:25:49.874Z,82.77
2023-04-07T01:28:57.881Z,82.56
2023-04-07T01:32:04.390Z,82.40
2023-04-07T01:35:12.986Z,82.53
2023-04-07T01:38:17.986Z,82.52
2023-04-07T01:41:23.835Z,82.66
2023-04-07T01:44:30.463Z,82.59
2023-04-07T01:47:37.682Z,82.64
2023-04-07T01:50:43.694Z,82.57
2023-04-07T01:53:48.610Z,82.58
2023-04-07T01:56:52.763Z,82.61
2023-04-07T01:59:56.883Z,82.56
2023-04-07T02:03:12.069Z,82.42
2023-04-07T02:06:22.529Z,82.42
2023-04-07T02:09:30.848Z,82.51
2023-04-07T02:12:38.133Z,82.46
2023-04-07T02:15:50.140Z,82.35
2023-04-07T02:18:56.811Z,82.45
2023-04-07T02:22:01.637Z,82.45
2023-04-07T02:25:21.637Z,82.45
2023-04-07T02:28:25.578Z,82.58
2023-04-07T02:31:29.857Z,82.45
2023-04-07T02:34:33.869Z,82.51
2023-04-07T02:37:38.947Z,82.48
2023-04-07T02:40:42.819Z,82.58
2023-04-07T02:43:47.062Z,82.41
2023-04-07T02:46:51.083Z,82.46
2023-04-07T02:49:55.111Z,82.24
2023-04-07T02:52:59.111Z,82.43
2023-04-07T02:56:03.216Z,82.31
2023-04-07T02:59:07.754Z,82.24
2023-04-07T03:02:15.722Z,82.32
2023-04-07T03:05:19.994Z,82.35
2023-04-07T03:08:24.176Z,82.41
2023-04-07T03:11:28.924Z,82.39
2023-04-07T03:14:33.874Z,82.43
2023-04-07T03:17:38.482Z,82.51
2023-04-07T03:20:44.669Z,82.44
2023-04-07T03:23:48.893Z,82.37
2023-04-07T03:26:53.112Z,82.50
2023-04-07T03:30:06.599Z,82.36
2023-04-07T03:33:11.162Z,82.37
2023-04-07T03:36:15.482Z,82.50
2023-04-07T03:39:19.693Z,82.25
2023-04-07T03:42:24.023Z,82.21
2023-04-07T03:45:29.126Z,82.25
2023-04-07T03:48:33.313Z,82.39
2023-04-07T03:51:40.769Z,82.19
2023-04-07T03:54:48.886Z,82.44
2023-04-07T03:57:53.341Z,82.20
2023-04-07T04:00:57.562Z,82.42
2023-04-07T04:04:03.151Z,82.43
2023-04-07T04:07:08.055Z,82.46
2023-04-07T04:10:16.934Z,82.58
2023-04-07T04:13:21.309Z,82.67
2023-04-07T04:16:26.011Z,82.66
2023-04-07T04:19:31.156Z,82.71
2023-04-07T04:22:36.342Z,82.59
2023-04-07T04:25:41.057Z,82.65
2023-04-07T04:28:47.323Z,82.61
2023-04-07T04:31:52.455Z,82.75
2023-04-07T04:34:56.998Z,82.78
2023-04-07T04:38:02.547Z,82.45
2023-04-07T04:41:06.973Z,82.47
2023-04-07T04:44:11.200Z,82.60
2023-04-07T04:47:17.450Z,82.61
2023-04-07T04:50:23.115Z,82.63
2023-04-07T04:53:27.725Z,82.81
2023-04-07T04:56:37.196Z,82.70
2023-04-07T04:59:42.743Z,82.81
2023-04-07T05:02:47.201Z,82.84
2023-04-07T05:05:52.674Z,83.07
2023-04-07T05:08:59.804Z,83.13
2023-04-07T05:12:08.619Z,83.01
2023-04-07T05:15:16.350Z,83.20
2023-04-07T05:18:22.122Z,83.24
2023-04-07T05:21:27.239Z,83.16
2023-04-07T05:24:32.894Z,83.12
2023-04-07T05:27:37.722Z,83.09
2023-04-07T05:30:48.293Z,83.31
2023-04-07T05:33:52.690Z,83.00
2023-04-07T05:36:58.681Z,83.33
2023-04-07T05:40:03.229Z,83.08
2023-04-07T05:43:07.327Z,82.86
2023-04-07T05:46:11.769Z,83.20
2023-04-07T05:49:23.868Z,83.28
2023-04-07T05:52:36.475Z,82.95
2023-04-07T05:55:47.478Z,83.07
2023-04-07T05:59:11.805Z,82.89
2023-04-07T06:02:16.924Z,83.23
2023-04-07T06:05:22.260Z,83.13
2023-04-07T06:08:28.709Z,83.43
2023-04-07T06:11:33.547Z,82.88
2023-04-07T06:14:37.559Z,82.95
2023-04-07T06:17:41.618Z,83.31
2023-04-07T06:20:48.086Z,83.16
2023-04-07T06:23:52.196Z,83.17
2023-04-07T06:26:57.105Z,83.08
2023-04-07T06:30:01.407Z,83.35
2023-04-07T06:33:05.361Z,83.18
2023-04-07T06:36:09.557Z,83.25
2023-04-07T06:39:13.881Z,83.15
2023-04-07T06:42:17.868Z,83.08
2023-04-07T06:45:28.407Z,83.11
2023-04-07T06:48:32.460Z,82.93
2023-04-07T06:51:36.428Z,83.29
2023-04-07T06:54:40.821Z,83.00
2023-04-07T06:57:45.449Z,82.79
2023-04-07T07:00:49.570Z,82.79
2023-04-07T07:03:53.904Z,82.69
2023-04-07T07:06:58.221Z,82.65
2023-04-07T07:10:02.607Z,82.45
2023-04-07T07:13:06.659Z,82.63
2023-04-07T07:16:12.638Z,82.26
2023-04-07T07:19:16.949Z,82.46
2023-04-07T07:22:20.846Z,82.28
2023-04-07T07:25:27.023Z,82.30
2023-04-07T07:28:31.149Z,82.47
2023-04-07T07:31:35.485Z,82.34
2023-04-07T07:34:39.482Z,82.74
2023-04-07T07:37:44.707Z,82.61
2023-04-07T07:40:48.740Z,82.34
2023-04-07T07:43:53.077Z,82.53
2023-04-07T07:46:57.062Z,82.51
2023-04-07T07:50:01.150Z,82.42
2023-04-07T07:53:05.095Z,82.26
2023-04-07T07:56:09.122Z,82.04
2023-04-07T07:59:13.101Z,81.94
2023-04-07T08:02:17.091Z,81.84
2023-04-07T08:05:21.600Z,81.51
2023-04-07T08:08:25.598Z,81.76
2023-04-07T08:11:29.614Z,81.52
2023-04-07T08:14:33.646Z,81.40
2023-04-07T08:17:38.047Z,81.59
2023-04-07T08:20:42.025Z,81.45
2023-04-07T08:23:46.703Z,81.44
2023-04-07T08:26:51.125Z,81.40
2023-04-07T08:30:03.235Z,81.34
2023-04-07T08:33:07.485Z,81.35
2023-04-07T08:36:11.884Z,81.39
2023-04-07T08:39:15.989Z,81.25
2023-04-07T08:42:23.247Z,81.38
2023-04-07T08:45:28.952Z,81.60
2023-04-07T08:48:34.402Z,81.76
2023-04-07T08:51:47.568Z,81.62
2023-04-07T08:54:53.477Z,81.58
2023-04-07T08:57:59.593Z,81.61
2023-04-07T09:01:06.887Z,81.50
2023-04-07T09:04:11.207Z,81.19
2023-04-07T09:07:15.476Z,81.08
2023-04-07T09:10:19.498Z,80.92
2023-04-07T09:13:26.331Z,80.76
2023-04-07T09:16:31.256Z,80.58
2023-04-07T09:19:35.577Z,80.45
2023-04-07T09:22:47.337Z,80.51
2023-04-07T09:25:51.349Z,80.45
2023-04-07T09:28:58.238Z,79.86
2023-04-07T09:32:02.491Z,79.85
2023-04-07T09:35:07.188Z,80.00
2023-04-07T09:38:11.402Z,79.89
2023-04-07T09:41:17.343Z,79.43
2023-04-07T09:44:25.702Z,79.46
2023-04-07T09:47:32.970Z,79.60
2023-04-07T09:50:41.739Z,79.27
2023-04-07T09:53:53.225Z,78.86
2023-04-07T09:56:58.888Z,79.05
2023-04-07T10:00:06.503Z,78.72
2023-04-07T10:03:17.848Z,79.01
2023-04-07T10:06:21.966Z,78.79
2023-04-07T10:09:28.329Z,78.75
2023-04-07T10:12:37.841Z,78.99
2023-04-07T10:15:42.839Z,78.75
2023-04-07T10:18:47.339Z,79.07
2023-04-07T10:21:54.533Z,79.04
2023-04-07T10:25:04.912Z,79.41
2023-04-07T10:28:09.722Z,79.39
2023-04-07T10:31:14.186Z,79.20
2023-04-07T10:34:18.506Z,79.29
2023-04-07T10:37:24.136Z,79.06
2023-04-07T10:40:29.576Z,79.10
2023-04-07T10:43:39.749Z,79.06
2023-04-07T10:46:47.240Z,78.94
2023-04-07T10:50:21.272Z,78.61
2023-04-07T10:53:25.197Z,78.69
2023-04-07T10:57:04.233Z,79.07
2023-04-07T11:00:11.689Z,78.81
2023-04-07T11:03:16.106Z,78.75
2023-04-07T11:06:20.669Z,79.01
2023-04-07T11:09:25.921Z,78.80
2023-04-07T11:12:31.364Z,79.28
2023-04-07T11:15:40.438Z,78.71
2023-04-07T11:18:48.049Z,78.86
2023-04-07T11:22:29.208Z,79.13
2023-04-07T11:25:35.650Z,78.70
2023-04-07T11:28:51.685Z,78.92
2023-04-07T11:31:58.940Z,78.89
2023-04-07T11:35:07.780Z,78.97
2023-04-07T11:38:12.910Z,78.95
2023-04-07T11:41:17.129Z,78.78
2023-04-07T11:44:21.356Z,79.05
2023-04-07T11:47:40.551Z,79.29
2023-04-07T11:50:44.750Z,79.25
2023-04-07T11:53:55.667Z,78.97
2023-04-07T11:56:59.848Z,78.75
2023-04-07T12:00:14.480Z,79.10
2023-04-07T12:03:18.953Z,79.06
2023-04-07T12:06:30.943Z,78.94
2023-04-07T12:09:38.353Z,79.07
2023-04-07T12:12:46.390Z,79.40
2023-04-07T12:15:50.325Z,79.33
2023-04-07T12:18:54.681Z,79.14
2023-04-07T12:21:58.691Z,79.03
2023-04-07T12:25:02.711Z,79.05
2023-04-07T12:28:07.035Z,78.75
2023-04-07T12:31:11.661Z,79.07
2023-04-07T12:34:15.984Z,78.93
2023-04-07T12:37:19.894Z,78.18
2023-04-07T12:40:24.629Z,77.98
2023-04-07T12:43:32.101Z,77.82
2023-04-07T12:46:36.340Z,77.77
2023-04-07T12:49:40.468Z,77.66
2023-04-07T12:52:44.426Z,78.01
2023-04-07T12:55:50.334Z,77.34
2023-04-07T12:58:55.040Z,77.40
2023-04-07T13:01:59.373Z,77.34
2023-04-07T13:05:04.952Z,76.93
2023-04-07T13:08:08.923Z,76.54
2023-04-07T13:11:12.914Z,76.46
2023-04-07T13:14:16.890Z,76.06
2023-04-07T13:17:20.915Z,75.11
2023-04-07T13:20:28.333Z,75.19
2023-04-07T13:23:42.049Z,75.07
2023-04-07T13:26:47.906Z,73.89
2023-04-07T13:29:51.762Z,73.13
2023-04-07T13:32:55.828Z,71.85
2023-04-07T13:35:59.984Z,72.62
2023-04-07T13:39:04.385Z,72.94
2023-04-07T13:42:10.928Z,71.61
2023-04-07T13:45:16.729Z,70.97
2023-04-07T13:48:20.732Z,69.47
2023-04-07T13:51:24.864Z,68.85
2023-04-07T13:54:28.955Z,68.91
2023-04-07T13:57:32.979Z,68.38
2023-04-07T14:00:38.636Z,68.13
2023-04-07T14:03:43.092Z,67.87
2023-04-07T14:06:47.200Z,68.17
2023-04-07T14:09:51.603Z,67.50
2023-04-07T14:12:55.483Z,67.38
2023-04-07T14:15:59.437Z,68.20
2023-04-07T14:19:04.993Z,68.73
2023-04-07T14:22:09.187Z,69.28
2023-04-07T14:25:13.520Z,69.65
2023-04-07T14:28:17.550Z,70.13
2023-04-07T14:31:21.994Z,70.54
2023-04-07T14:34:26.183Z,70.61
2023-04-07T14:37:30.829Z,70.77
2023-04-07T14:40:35.040Z,70.96
2023-04-07T14:43:42.630Z,71.35
2023-04-07T14:46:46.919Z,71.47
2023-04-07T14:49:53.353Z,71.62
2023-04-07T14:52:57.755Z,72.09
2023-04-07T14:56:05.041Z,71.90
2023-04-07T14:59:09.067Z,71.90
2023-04-07T15:02:13.218Z,72.01
2023-04-07T15:05:17.340Z,72.00
2023-04-07T15:08:21.335Z,71.85
2023-04-07T15:11:26.354Z,71.53
2023-04-07T15:14:30.281Z,71.33
2023-04-07T15:17:43.161Z,71.52
2023-04-07T15:20:48.346Z,71.25
2023-04-07T15:23:52.562Z,70.96
2023-04-07T15:26:56.579Z,70.23
2023-04-07T15:30:00.902Z,69.62
2023-04-07T15:33:05.123Z,69.93
2023-04-07T15:36:09.544Z,69.42
2023-04-07T15:39:13.763Z,69.45
2023-04-07T15:42:17.774Z,69.45
2023-04-07T15:45:22.006Z,69.11
2023-04-07T15:48:26.032Z,68.63
2023-04-07T15:51:30.028Z,68.53
2023-04-07T15:54:33.992Z,68.70
2023-04-07T15:57:38.273Z,68.77
2023-04-07T16:00:42.611Z,68.00
2023-04-07T16:03:47.599Z,68.04
2023-04-07T16:06:51.948Z,67.59
2023-04-07T16:09:56.187Z,67.57
2023-04-07T16:13:00.187Z,67.63
2023-04-07T16:16:04.529Z,67.61
2023-04-07T16:19:08.630Z,67.48
2023-04-07T16:22:12.766Z,67.35
2023-04-07T16:25:18.169Z,67.63
2023-04-07T16:28:22.176Z,67.71
2023-04-07T16:31:26.256Z,67.63
2023-04-07T16:34:30.941Z,67.41
2023-04-07T16:37:34.827Z,67.50
2023-04-07T16:40:38.807Z,67.58
2023-04-07T16:43:42.733Z,67.72
2023-04-07T16:46:46.650Z,67.68
2023-04-07T16:49:50.838Z,68.02
2023-04-07T16:52:57.562Z,68.22
2023-04-07T16:56:01.841Z,68.28
2023-04-07T16:59:05.855Z,68.16
2023-04-07T17:02:16.530Z,68.21
2023-04-07T17:05:21.182Z,68.15
2023-04-07T17:08:25.807Z,68.28
2023-04-07T17:11:29.910Z,68.34
2023-04-07T17:14:34.416Z,68.38
2023-04-07T17:17:39.523Z,68.46
2023-04-07T17:20:43.587Z,68.35
2023-04-07T17:23:47.812Z,68.78
2023-04-07T17:26:51.920Z,68.76
2023-04-07T17:29:56.142Z,68.51
2023-04-07T17:33:00.184Z,68.53
2023-04-07T17:36:04.405Z,68.66
2023-04-07T17:39:08.500Z,68.62
2023-04-07T17:42:12.411Z,68.75
2023-04-07T17:45:16.736Z,68.90
2023-04-07T17:48:21.176Z,69.13
2023-04-07T17:51:25.688Z,69.22
2023-04-07T17:54:29.706Z,69.54
2023-04-07T17:57:35.869Z,69.57
2023-04-07T18:00:39.885Z,69.83
2023-04-07T18:03:44.553Z,70.06
2023-04-07T18:06:49.157Z,69.91
2023-04-07T18:09:53.367Z,70.18
2023-04-07T18:12:57.795Z,70.11
2023-04-07T18:16:02.061Z,70.37
2023-04-07T18:19:06.324Z,70.41
2023-04-07T18:22:10.357Z,70.69
2023-04-07T18:25:14.449Z,70.66
2023-04-07T18:28:18.493Z,70.81
2023-04-07T18:31:22.495Z,70.88
2023-04-07T18:34:26.620Z,70.83
2023-04-07T18:37:30.565Z,71.30
2023-04-07T18:40:35.674Z,71.24
2023-04-07T18:43:39.827Z,71.23
2023-04-07T18:46:44.406Z,71.14
2023-04-07T18:49:48.645Z,71.16
2023-04-07T18:52:52.672Z,71.34
2023-04-07T18:55:56.674Z,71.45
2023-04-07T18:59:00.694Z,71.67
2023-04-07T19:02:04.759Z,72.16
2023-04-07T19:05:08.829Z,71.75
2023-04-07T19:08:12.942Z,72.17
2023-04-07T19:11:17.637Z,72.24
2023-04-07T19:14:21.592Z,72.44
2023-04-07T19:17:26.412Z,72.29
2023-04-07T19:20:30.952Z,72.17
2023-04-07T19:23:34.912Z,71.96
2023-04-07T19:26:38.907Z,72.43
2023-04-07T19:29:43.004Z,72.42
2023-04-07T19:32:47.120Z,72.62
2023-04-07T19:35:51.096Z,72.49
2023-04-07T19:38:55.083Z,72.66
2023-04-07T19:41:58.984Z,72.60
2023-04-07T19:45:05.738Z,72.31
2023-04-07T19:48:09.734Z,72.14
2023-04-07T19:51:13.777Z,72.36
2023-04-07T19:54:17.676Z,72.29
2023-04-07T19:57:21.892Z,72.17
2023-04-07T20:00:26.018Z,72.08
2023-04-07T20:03:31.431Z,72.23
2023-04-07T20:06:36.706Z,72.07
2023-04-07T20:09:40.729Z,71.73
2023-04-07T20:12:44.744Z,71.58
2023-04-07T20:15:49.390Z,71.57
2023-04-07T20:18:53.401Z,71.64
2023-04-07T20:21:57.377Z,71.62
2023-04-07T20:25:05.508Z,71.08
2023-04-07T20:28:09.537Z,70.61
2023-04-07T20:31:13.529Z,70.41
2023-04-07T20:34:18.084Z,70.62
2023-04-07T20:37:22.811Z,70.63
2023-04-07T20:40:27.651Z,70.48
2023-04-07T20:43:31.696Z,70.19
2023-04-07T20:46:35.940Z,69.72
2023-04-07T20:49:41.353Z,69.17
2023-04-07T20:52:45.332Z,69.64
2023-04-07T20:55:49.368Z,70.05
2023-04-07T20:58:53.323Z,70.06
2023-04-07T21:01:57.416Z,70.24
2023-04-07T21:05:02.235Z,70.41
2023-04-07T21:08:06.671Z,70.45
2023-04-07T21:11:10.871Z,70.57
2023-04-07T21:14:14.893Z,70.63
2023-04-07T21:17:18.934Z,70.71
2023-04-07T21:20:22.929Z,70.97
2023-04-07T21:23:26.844Z,70.88
2023-04-07T21:26:30.862Z,70.99
2023-04-07T21:29:34.868Z,71.15
2023-04-07T21:32:39.198Z,71.06
2023-04-07T21:35:43.339Z,71.33
2023-04-07T21:38:48.018Z,71.17
2023-04-07T21:41:52.881Z,71.17
2023-04-07T21:44:57.203Z,71.17
2023-04-07T21:48:01.341Z,70.89
2023-04-07T21:51:05.753Z,70.96
2023-04-07T21:54:09.790Z,70.72
2023-04-07T21:57:13.909Z,70.94
2023-04-07T22:00:17.997Z,70.91
2023-04-07T22:03:22.198Z,70.54
2023-04-07T22:06:26.833Z,70.50
2023-04-07T22:09:30.865Z,70.36
2023-04-07T22:12:34.986Z,70.17
2023-04-07T22:15:39.008Z,70.14
2023-04-07T22:18:43.017Z,70.07
2023-04-07T22:21:49.405Z,70.06
2023-04-07T22:24:53.505Z,70.03
2023-04-07T22:27:57.720Z,70.11
2023-04-07T22:31:02.432Z,69.79
2023-04-07T22:34:06.439Z,69.86
2023-04-07T22:37:10.496Z,69.77
2023-04-07T22:40:14.500Z,69.74
2023-04-07T22:43:18.519Z,69.71
2023-04-07T22:46:22.440Z,69.77
2023-04-07T22:49:26.406Z,69.44
2023-04-07T22:52:30.463Z,69.59
2023-04-07T22:55:35.447Z,69.50
2023-04-07T22:58:39.622Z,69.47
2023-04-07T23:01:43.586Z,69.00
2023-04-07T23:04:48.770Z,69.25
2023-04-07T23:07:53.407Z,69.58
2023-04-07T23:10:57.418Z,69.49
2023-04-07T23:14:05.032Z,69.32
2023-04-07T23:17:09.154Z,69.36
2023-04-07T23:20:13.230Z,69.48
2023-04-07T23:23:17.270Z,69.24
2023-04-07T23:26:21.188Z,69.62
2023-04-07T23:29:25.189Z,69.31
2023-04-07T23:32:29.216Z,69.22
2023-04-07T23:35:33.415Z,69.52
2023-04-07T23:38:39.609Z,69.43
2023-04-07T23:41:43.619Z,69.40
2023-04-07T23:44:48.148Z,69.54
2023-04-07T23:47:52.069Z,69.40
2023-04-07T23:50:56.050Z,69.34
2023-04-07T23:54:00.162Z,69.40
2023-04-07T23:57:04.212Z,69.35
